sensor_id;sensor_type;location;lat;lon;timestamp;temperature;humidity
24460;DHT22;12630;50.860;5.714;2022-12-18T00:01:01;-7.30;1.00
24460;DHT22;12630;50.860;5.714;2022-12-18T00:03:32;-7.40;1.00
24460;DHT22;12630;50.860;5.714;2022-12-18T00:05:59;-7.40;1.00
24460;DHT22;12630;50.860;5.714;2022-12-18T00:08:27;-7.40;1.00
24460;DHT22;12630;50.860;5.714;2022-12-18T00:10:56;-7.50;1.00
24460;DHT22;12630;50.860;5.714;2022-12-18T00:13:29;-7.50;1.00
24460;DHT22;12630;50.860;5.714;2022-12-18T00:16:02;-7.60;1.00
24460;DHT22;12630;50.860;5.714;2022-12-18T00:18:30;-7.70;1.00
24460;DHT22;12630;50.860;5.714;2022-12-18T00:20:59;-7.70;1.00
24460;DHT22;12630;50.860;5.714;2022-12-18T00:23:27;-7.80;1.00
24460;DHT22;12630;50.860;5.714;2022-12-18T00:25:58;-7.80;1.00
24460;DHT22;12630;50.860;5.714;2022-12-18T00:28:26;-7.90;1.00
24460;DHT22;12630;50.860;5.714;2022-12-18T00:31:00;-7.90;1.00
24460;DHT22;12630;50.860;5.714;2022-12-18T00:33:27;-7.80;1.00
24460;DHT22;12630;50.860;5.714;2022-12-18T00:35:55;-7.90;1.00
24460;DHT22;12630;50.860;5.714;2022-12-18T00:38:26;-7.80;1.00
24460;DHT22;12630;50.860;5.714;2022-12-18T00:40:55;-7.90;1.00
24460;DHT22;12630;50.860;5.714;2022-12-18T00:43:22;-7.90;1.00
24460;DHT22;12630;50.860;5.714;2022-12-18T00:45:48;-8.00;1.00
24460;DHT22;12630;50.860;5.714;2022-12-18T00:48:16;-8.10;1.00
24460;DHT22;12630;50.860;5.714;2022-12-18T00:50:43;-8.10;1.00
24460;DHT22;12630;50.860;5.714;2022-12-18T00:53:10;-8.10;1.00
24460;DHT22;12630;50.860;5.714;2022-12-18T00:55:39;-8.10;1.00
24460;DHT22;12630;50.860;5.714;2022-12-18T00:58:07;-8.20;1.00
24460;DHT22;12630;50.860;5.714;2022-12-18T01:00:35;-8.30;1.00
24460;DHT22;12630;50.860;5.714;2022-12-18T01:03:03;-8.30;1.00
24460;DHT22;12630;50.860;5.714;2022-12-18T01:05:30;-8.20;1.00
24460;DHT22;12630;50.860;5.714;2022-12-18T01:07:58;-8.20;1.00
24460;DHT22;12630;50.860;5.714;2022-12-18T01:10:25;-8.20;1.00
24460;DHT22;12630;50.860;5.714;2022-12-18T01:12:52;-8.20;1.00
24460;DHT22;12630;50.860;5.714;2022-12-18T01:15:21;-8.30;1.00
24460;DHT22;12630;50.860;5.714;2022-12-18T01:17:48;-8.30;1.00
24460;DHT22;12630;50.860;5.714;2022-12-18T01:20:15;-8.40;1.00
24460;DHT22;12630;50.860;5.714;2022-12-18T01:22:43;-8.40;1.00
24460;DHT22;12630;50.860;5.714;2022-12-18T01:25:10;-8.40;1.00
24460;DHT22;12630;50.860;5.714;2022-12-18T01:27:37;-8.40;1.00
24460;DHT22;12630;50.860;5.714;2022-12-18T01:30:05;-8.40;1.00
24460;DHT22;12630;50.860;5.714;2022-12-18T01:32:34;-8.40;1.00
24460;DHT22;12630;50.860;5.714;2022-12-18T01:35:01;-8.40;1.00
24460;DHT22;12630;50.860;5.714;2022-12-18T01:37:28;-8.40;1.00
24460;DHT22;12630;50.860;5.714;2022-12-18T01:39:55;-8.40;1.00
24460;DHT22;12630;50.860;5.714;2022-12-18T01:42:22;-8.40;1.00
24460;DHT22;12630;50.860;5.714;2022-12-18T01:44:55;-8.40;1.00
24460;DHT22;12630;50.860;5.714;2022-12-18T01:47:26;-8.50;1.00
24460;DHT22;12630;50.860;5.714;2022-12-18T01:49:56;-8.50;1.00
24460;DHT22;12630;50.860;5.714;2022-12-18T01:52:25;-8.50;1.00
24460;DHT22;12630;50.860;5.714;2022-12-18T01:54:53;-8.50;1.00
24460;DHT22;12630;50.860;5.714;2022-12-18T01:57:22;-8.60;1.00
24460;DHT22;12630;50.860;5.714;2022-12-18T01:59:52;-8.60;1.00
24460;DHT22;12630;50.860;5.714;2022-12-18T02:02:21;-8.50;1.00
24460;DHT22;12630;50.860;5.714;2022-12-18T02:04:48;-8.50;1.00
24460;DHT22;12630;50.860;5.714;2022-12-18T02:07:25;-8.30;1.00
24460;DHT22;12630;50.860;5.714;2022-12-18T02:10:00;-8.20;1.00
24460;DHT22;12630;50.860;5.714;2022-12-18T02:12:33;-8.20;1.00
24460;DHT22;12630;50.860;5.714;2022-12-18T02:15:07;-8.20;1.00
24460;DHT22;12630;50.860;5.714;2022-12-18T02:17:39;-8.10;1.00
24460;DHT22;12630;50.860;5.714;2022-12-18T02:20:12;-8.10;1.00
24460;DHT22;12630;50.860;5.714;2022-12-18T02:22:49;-8.00;1.00
24460;DHT22;12630;50.860;5.714;2022-12-18T02:25:32;-8.00;1.00
24460;DHT22;12630;50.860;5.714;2022-12-18T02:28:05;-7.90;1.00
24460;DHT22;12630;50.860;5.714;2022-12-18T02:30:34;-7.90;1.00
24460;DHT22;12630;50.860;5.714;2022-12-18T02:33:04;-7.80;1.00
24460;DHT22;12630;50.860;5.714;2022-12-18T02:35:33;-7.80;1.00
24460;DHT22;12630;50.860;5.714;2022-12-18T02:38:02;-7.80;1.00
24460;DHT22;12630;50.860;5.714;2022-12-18T02:40:30;-7.80;1.00
24460;DHT22;12630;50.860;5.714;2022-12-18T02:43:07;-7.80;1.00
24460;DHT22;12630;50.860;5.714;2022-12-18T02:45:34;-7.80;1.00
24460;DHT22;12630;50.860;5.714;2022-12-18T02:48:02;-7.80;1.00
24460;DHT22;12630;50.860;5.714;2022-12-18T02:50:34;-7.80;1.00
24460;DHT22;12630;50.860;5.714;2022-12-18T02:53:10;-7.80;1.00
24460;DHT22;12630;50.860;5.714;2022-12-18T02:55:48;-7.80;1.00
24460;DHT22;12630;50.860;5.714;2022-12-18T02:58:23;-7.80;1.00
24460;DHT22;12630;50.860;5.714;2022-12-18T03:00:59;-7.90;1.00
24460;DHT22;12630;50.860;5.714;2022-12-18T03:03:31;-7.90;1.00
24460;DHT22;12630;50.860;5.714;2022-12-18T03:06:05;-7.90;1.00
24460;DHT22;12630;50.860;5.714;2022-12-18T03:08:38;-7.90;1.00
24460;DHT22;12630;50.860;5.714;2022-12-18T03:11:09;-7.90;1.00
24460;DHT22;12630;50.860;5.714;2022-12-18T03:13:42;-7.90;1.00
24460;DHT22;12630;50.860;5.714;2022-12-18T03:16:14;-8.00;1.00
24460;DHT22;12630;50.860;5.714;2022-12-18T03:18:46;-8.00;1.00
24460;DHT22;12630;50.860;5.714;2022-12-18T03:21:18;-8.00;1.00
24460;DHT22;12630;50.860;5.714;2022-12-18T03:23:49;-8.00;1.00
24460;DHT22;12630;50.860;5.714;2022-12-18T03:26:17;-8.00;1.00
24460;DHT22;12630;50.860;5.714;2022-12-18T03:28:49;-8.00;1.00
24460;DHT22;12630;50.860;5.714;2022-12-18T03:31:18;-8.00;1.00
24460;DHT22;12630;50.860;5.714;2022-12-18T03:33:51;-8.00;1.00
24460;DHT22;12630;50.860;5.714;2022-12-18T03:36:18;-7.90;1.00
24460;DHT22;12630;50.860;5.714;2022-12-18T03:38:46;-7.90;1.00
24460;DHT22;12630;50.860;5.714;2022-12-18T03:41:18;-7.90;1.00
24460;DHT22;12630;50.860;5.714;2022-12-18T03:43:52;-7.90;1.00
24460;DHT22;12630;50.860;5.714;2022-12-18T03:46:26;-7.90;1.00
24460;DHT22;12630;50.860;5.714;2022-12-18T03:48:59;-7.90;1.00
24460;DHT22;12630;50.860;5.714;2022-12-18T03:51:35;-8.00;1.00
24460;DHT22;12630;50.860;5.714;2022-12-18T03:54:06;-8.00;1.00
24460;DHT22;12630;50.860;5.714;2022-12-18T03:56:38;-8.00;1.00
24460;DHT22;12630;50.860;5.714;2022-12-18T03:59:10;-8.00;1.00
24460;DHT22;12630;50.860;5.714;2022-12-18T04:01:40;-8.00;1.00
24460;DHT22;12630;50.860;5.714;2022-12-18T04:04:10;-8.00;1.00
24460;DHT22;12630;50.860;5.714;2022-12-18T04:06:40;-8.00;1.00
24460;DHT22;12630;50.860;5.714;2022-12-18T04:09:08;-8.00;1.00
24460;DHT22;12630;50.860;5.714;2022-12-18T04:11:35;-8.10;99.90
24460;DHT22;12630;50.860;5.714;2022-12-18T04:14:02;-8.10;99.90
24460;DHT22;12630;50.860;5.714;2022-12-18T04:16:31;-8.10;99.90
24460;DHT22;12630;50.860;5.714;2022-12-18T04:18:58;-8.10;99.90
24460;DHT22;12630;50.860;5.714;2022-12-18T04:21:25;-8.10;99.90
24460;DHT22;12630;50.860;5.714;2022-12-18T04:23:53;-8.00;99.90
24460;DHT22;12630;50.860;5.714;2022-12-18T04:26:20;-8.00;99.90
24460;DHT22;12630;50.860;5.714;2022-12-18T04:28:47;-8.00;99.90
24460;DHT22;12630;50.860;5.714;2022-12-18T04:31:14;-8.00;99.90
24460;DHT22;12630;50.860;5.714;2022-12-18T04:33:43;-8.00;99.90
24460;DHT22;12630;50.860;5.714;2022-12-18T04:36:10;-8.00;99.90
24460;DHT22;12630;50.860;5.714;2022-12-18T04:38:38;-8.00;99.90
24460;DHT22;12630;50.860;5.714;2022-12-18T04:41:06;-8.00;99.90
24460;DHT22;12630;50.860;5.714;2022-12-18T04:43:33;-8.00;99.90
24460;DHT22;12630;50.860;5.714;2022-12-18T04:46:04;-8.00;1.00
24460;DHT22;12630;50.860;5.714;2022-12-18T04:48:31;-8.00;1.00
24460;DHT22;12630;50.860;5.714;2022-12-18T04:51:00;-8.10;1.00
24460;DHT22;12630;50.860;5.714;2022-12-18T04:53:27;-8.10;1.00
24460;DHT22;12630;50.860;5.714;2022-12-18T04:56:03;-8.10;1.00
24460;DHT22;12630;50.860;5.714;2022-12-18T04:58:30;-8.10;1.00
24460;DHT22;12630;50.860;5.714;2022-12-18T05:00:58;-8.20;1.00
24460;DHT22;12630;50.860;5.714;2022-12-18T05:03:25;-8.20;1.00
24460;DHT22;12630;50.860;5.714;2022-12-18T05:05:52;-8.30;1.00
24460;DHT22;12630;50.860;5.714;2022-12-18T05:08:21;-8.30;1.00
24460;DHT22;12630;50.860;5.714;2022-12-18T05:10:49;-8.40;1.00
24460;DHT22;12630;50.860;5.714;2022-12-18T05:13:16;-8.40;1.00
24460;DHT22;12630;50.860;5.714;2022-12-18T05:15:51;-8.50;1.00
24460;DHT22;12630;50.860;5.714;2022-12-18T05:18:18;-8.50;1.00
24460;DHT22;12630;50.860;5.714;2022-12-18T05:20:46;-8.50;1.00
24460;DHT22;12630;50.860;5.714;2022-12-18T05:23:13;-8.40;1.00
24460;DHT22;12630;50.860;5.714;2022-12-18T05:25:41;-8.40;1.00
24460;DHT22;12630;50.860;5.714;2022-12-18T05:28:09;-8.30;1.00
24460;DHT22;12630;50.860;5.714;2022-12-18T05:30:36;-8.30;1.00
24460;DHT22;12630;50.860;5.714;2022-12-18T05:33:03;-8.30;1.00
24460;DHT22;12630;50.860;5.714;2022-12-18T05:35:30;-8.20;1.00
24460;DHT22;12630;50.860;5.714;2022-12-18T05:37:58;-8.10;1.00
24460;DHT22;12630;50.860;5.714;2022-12-18T05:40:25;-8.10;1.00
24460;DHT22;12630;50.860;5.714;2022-12-18T05:42:53;-8.00;1.00
24460;DHT22;12630;50.860;5.714;2022-12-18T05:45:21;-8.00;1.00
24460;DHT22;12630;50.860;5.714;2022-12-18T05:47:48;-8.00;1.00
24460;DHT22;12630;50.860;5.714;2022-12-18T05:50:15;-8.00;1.00
24460;DHT22;12630;50.860;5.714;2022-12-18T05:52:42;-8.10;1.00
24460;DHT22;12630;50.860;5.714;2022-12-18T05:55:09;-8.10;1.00
24460;DHT22;12630;50.860;5.714;2022-12-18T05:57:37;-8.10;1.00
24460;DHT22;12630;50.860;5.714;2022-12-18T06:00:07;-8.10;1.00
24460;DHT22;12630;50.860;5.714;2022-12-18T06:02:34;-8.10;1.00
24460;DHT22;12630;50.860;5.714;2022-12-18T06:05:01;-8.30;99.90
24460;DHT22;12630;50.860;5.714;2022-12-18T06:07:29;-8.40;99.90
24460;DHT22;12630;50.860;5.714;2022-12-18T06:09:56;-8.40;1.00
24460;DHT22;12630;50.860;5.714;2022-12-18T06:12:23;-8.40;1.00
24460;DHT22;12630;50.860;5.714;2022-12-18T06:14:50;-8.40;1.00
24460;DHT22;12630;50.860;5.714;2022-12-18T06:17:19;-8.30;1.00
24460;DHT22;12630;50.860;5.714;2022-12-18T06:19:46;-8.30;1.00
24460;DHT22;12630;50.860;5.714;2022-12-18T06:22:13;-8.50;99.90
24460;DHT22;12630;50.860;5.714;2022-12-18T06:24:41;-8.60;99.90
24460;DHT22;12630;50.860;5.714;2022-12-18T06:27:08;-8.60;99.90
24460;DHT22;12630;50.860;5.714;2022-12-18T06:29:35;-8.60;99.90
24460;DHT22;12630;50.860;5.714;2022-12-18T06:32:03;-8.60;99.90
24460;DHT22;12630;50.860;5.714;2022-12-18T06:34:31;-8.70;99.90
24460;DHT22;12630;50.860;5.714;2022-12-18T06:36:59;-8.80;27.20
24460;DHT22;12630;50.860;5.714;2022-12-18T06:39:27;-8.90;1.00
24460;DHT22;12630;50.860;5.714;2022-12-18T06:41:54;-9.00;1.00
24460;DHT22;12630;50.860;5.714;2022-12-18T06:44:22;-9.00;1.00
24460;DHT22;12630;50.860;5.714;2022-12-18T06:46:49;-9.10;1.00
24460;DHT22;12630;50.860;5.714;2022-12-18T06:49:16;-9.00;99.90
24460;DHT22;12630;50.860;5.714;2022-12-18T06:51:45;-9.00;99.90
24460;DHT22;12630;50.860;5.714;2022-12-18T06:54:12;-9.00;99.90
24460;DHT22;12630;50.860;5.714;2022-12-18T06:56:40;-9.00;99.90
24460;DHT22;12630;50.860;5.714;2022-12-18T06:59:07;-9.10;43.30
24460;DHT22;12630;50.860;5.714;2022-12-18T07:01:34;-9.10;27.60
24460;DHT22;12630;50.860;5.714;2022-12-18T07:04:01;-9.00;1.00
24460;DHT22;12630;50.860;5.714;2022-12-18T07:06:28;-8.90;1.00
24460;DHT22;12630;50.860;5.714;2022-12-18T07:08:57;-8.80;1.00
24460;DHT22;12630;50.860;5.714;2022-12-18T07:11:24;-8.70;1.00
24460;DHT22;12630;50.860;5.714;2022-12-18T07:13:52;-8.60;99.90
24460;DHT22;12630;50.860;5.714;2022-12-18T07:16:20;-8.60;99.90
24460;DHT22;12630;50.860;5.714;2022-12-18T07:18:48;-8.60;99.90
24460;DHT22;12630;50.860;5.714;2022-12-18T07:21:17;-8.60;99.90
24460;DHT22;12630;50.860;5.714;2022-12-18T07:23:44;-8.60;1.00
24460;DHT22;12630;50.860;5.714;2022-12-18T07:26:16;-8.70;1.00
24460;DHT22;12630;50.860;5.714;2022-12-18T07:28:44;-8.60;1.00
24460;DHT22;12630;50.860;5.714;2022-12-18T07:31:12;-8.70;1.00
24460;DHT22;12630;50.860;5.714;2022-12-18T07:33:40;-8.70;1.00
24460;DHT22;12630;50.860;5.714;2022-12-18T07:36:10;-8.70;1.00
24460;DHT22;12630;50.860;5.714;2022-12-18T07:38:37;-8.70;99.90
24460;DHT22;12630;50.860;5.714;2022-12-18T07:41:06;-8.70;99.90
24460;DHT22;12630;50.860;5.714;2022-12-18T07:43:36;-8.60;1.00
24460;DHT22;12630;50.860;5.714;2022-12-18T07:46:04;-8.40;1.00
24460;DHT22;12630;50.860;5.714;2022-12-18T07:48:32;-8.30;1.00
24460;DHT22;12630;50.860;5.714;2022-12-18T07:50:59;-8.20;1.00
24460;DHT22;12630;50.860;5.714;2022-12-18T07:53:27;-8.00;1.00
24460;DHT22;12630;50.860;5.714;2022-12-18T07:55:55;-8.00;1.00
24460;DHT22;12630;50.860;5.714;2022-12-18T07:58:23;-7.90;99.90
24460;DHT22;12630;50.860;5.714;2022-12-18T08:00:52;-7.80;1.00
24460;DHT22;12630;50.860;5.714;2022-12-18T08:03:20;-7.80;1.00
24460;DHT22;12630;50.860;5.714;2022-12-18T08:05:47;-7.60;1.00
24460;DHT22;12630;50.860;5.714;2022-12-18T08:08:17;-7.50;1.00
24460;DHT22;12630;50.860;5.714;2022-12-18T08:10:44;-7.30;1.00
24460;DHT22;12630;50.860;5.714;2022-12-18T08:13:12;-7.00;1.00
24460;DHT22;12630;50.860;5.714;2022-12-18T08:15:40;-6.70;99.90
24460;DHT22;12630;50.860;5.714;2022-12-18T08:18:09;-6.50;1.00
24460;DHT22;12630;50.860;5.714;2022-12-18T08:20:36;-6.40;1.00
24460;DHT22;12630;50.860;5.714;2022-12-18T08:23:03;-6.40;39.50
24460;DHT22;12630;50.860;5.714;2022-12-18T08:25:30;-6.30;1.00
24460;DHT22;12630;50.860;5.714;2022-12-18T08:27:58;-6.20;1.00
24460;DHT22;12630;50.860;5.714;2022-12-18T08:30:25;-6.00;99.90
24460;DHT22;12630;50.860;5.714;2022-12-18T08:32:52;-5.70;1.00
24460;DHT22;12630;50.860;5.714;2022-12-18T08:35:21;-5.50;1.00
24460;DHT22;12630;50.860;5.714;2022-12-18T08:37:48;-5.50;90.60
24460;DHT22;12630;50.860;5.714;2022-12-18T08:40:16;-5.40;99.90
24460;DHT22;12630;50.860;5.714;2022-12-18T08:42:43;-5.30;1.00
24460;DHT22;12630;50.860;5.714;2022-12-18T08:45:27;-5.00;1.00
24460;DHT22;12630;50.860;5.714;2022-12-18T08:47:55;-4.80;1.00
24460;DHT22;12630;50.860;5.714;2022-12-18T08:50:24;-4.60;32.80
24460;DHT22;12630;50.860;5.714;2022-12-18T08:52:51;-4.60;99.90
24460;DHT22;12630;50.860;5.714;2022-12-18T08:55:18;-4.10;1.00
24460;DHT22;12630;50.860;5.714;2022-12-18T08:57:48;-3.40;1.00
24460;DHT22;12630;50.860;5.714;2022-12-18T09:00:16;-3.00;1.00
24460;DHT22;12630;50.860;5.714;2022-12-18T09:02:43;-3.00;99.90
24460;DHT22;12630;50.860;5.714;2022-12-18T09:05:11;-2.50;99.90
24460;DHT22;12630;50.860;5.714;2022-12-18T09:07:39;-2.20;1.00
24460;DHT22;12630;50.860;5.714;2022-12-18T09:10:07;-2.10;1.00
24460;DHT22;12630;50.860;5.714;2022-12-18T09:12:34;-2.40;1.00
24460;DHT22;12630;50.860;5.714;2022-12-18T09:15:02;-2.70;1.00
24460;DHT22;12630;50.860;5.714;2022-12-18T09:17:29;-2.70;1.00
24460;DHT22;12630;50.860;5.714;2022-12-18T09:19:56;-2.80;1.00
24460;DHT22;12630;50.860;5.714;2022-12-18T09:22:24;-3.00;1.00
24460;DHT22;12630;50.860;5.714;2022-12-18T09:24:52;-3.30;1.00
24460;DHT22;12630;50.860;5.714;2022-12-18T09:27:20;-3.50;1.00
24460;DHT22;12630;50.860;5.714;2022-12-18T09:29:47;-3.40;1.00
24460;DHT22;12630;50.860;5.714;2022-12-18T09:32:14;-3.50;1.00
24460;DHT22;12630;50.860;5.714;2022-12-18T09:34:41;-3.50;1.00
24460;DHT22;12630;50.860;5.714;2022-12-18T09:37:09;-3.40;1.00
24460;DHT22;12630;50.860;5.714;2022-12-18T09:39:36;-3.30;1.00
24460;DHT22;12630;50.860;5.714;2022-12-18T09:42:05;-3.00;1.00
24460;DHT22;12630;50.860;5.714;2022-12-18T09:44:38;-2.90;1.00
24460;DHT22;12630;50.860;5.714;2022-12-18T09:47:11;-2.60;1.00
24460;DHT22;12630;50.860;5.714;2022-12-18T09:49:43;-2.50;1.00
24460;DHT22;12630;50.860;5.714;2022-12-18T09:52:16;-2.50;1.00
24460;DHT22;12630;50.860;5.714;2022-12-18T09:54:46;-2.50;1.00
24460;DHT22;12630;50.860;5.714;2022-12-18T09:57:19;-2.40;1.00
24460;DHT22;12630;50.860;5.714;2022-12-18T09:59:51;-2.10;1.00
24460;DHT22;12630;50.860;5.714;2022-12-18T10:02:21;-1.90;1.00
24460;DHT22;12630;50.860;5.714;2022-12-18T10:04:59;-1.90;99.90
24460;DHT22;12630;50.860;5.714;2022-12-18T10:07:38;-1.70;99.90
24460;DHT22;12630;50.860;5.714;2022-12-18T10:10:12;-1.70;99.90
24460;DHT22;12630;50.860;5.714;2022-12-18T10:12:47;-1.80;99.90
24460;DHT22;12630;50.860;5.714;2022-12-18T10:15:21;-1.80;99.90
24460;DHT22;12630;50.860;5.714;2022-12-18T10:17:54;-1.80;99.90
24460;DHT22;12630;50.860;5.714;2022-12-18T10:20:29;-1.90;99.90
24460;DHT22;12630;50.860;5.714;2022-12-18T10:23:08;-1.80;99.90
24460;DHT22;12630;50.860;5.714;2022-12-18T10:25:50;-2.00;99.90
24460;DHT22;12630;50.860;5.714;2022-12-18T10:28:21;-2.00;99.90
24460;DHT22;12630;50.860;5.714;2022-12-18T10:30:50;-2.00;99.90
24460;DHT22;12630;50.860;5.714;2022-12-18T10:33:19;-2.00;99.90
24460;DHT22;12630;50.860;5.714;2022-12-18T10:35:47;-1.80;99.90
24460;DHT22;12630;50.860;5.714;2022-12-18T10:38:23;-1.70;99.90
24460;DHT22;12630;50.860;5.714;2022-12-18T10:40:53;-1.80;99.90
24460;DHT22;12630;50.860;5.714;2022-12-18T10:43:22;-1.90;99.90
24460;DHT22;12630;50.860;5.714;2022-12-18T10:46:03;-2.00;99.90
24460;DHT22;12630;50.860;5.714;2022-12-18T10:48:32;-1.80;99.90
24460;DHT22;12630;50.860;5.714;2022-12-18T10:51:00;-1.70;99.90
24460;DHT22;12630;50.860;5.714;2022-12-18T10:53:30;-1.60;99.90
24460;DHT22;12630;50.860;5.714;2022-12-18T10:55:59;-1.60;99.90
24460;DHT22;12630;50.860;5.714;2022-12-18T10:58:32;-1.50;99.90
24460;DHT22;12630;50.860;5.714;2022-12-18T11:01:06;-1.50;99.90
24460;DHT22;12630;50.860;5.714;2022-12-18T11:03:36;-1.60;99.90
24460;DHT22;12630;50.860;5.714;2022-12-18T11:06:07;-1.40;99.90
24460;DHT22;12630;50.860;5.714;2022-12-18T11:08:35;-1.40;99.90
24460;DHT22;12630;50.860;5.714;2022-12-18T11:11:06;-1.30;99.90
24460;DHT22;12630;50.860;5.714;2022-12-18T11:13:36;-1.20;99.90
24460;DHT22;12630;50.860;5.714;2022-12-18T11:16:03;-1.30;99.90
24460;DHT22;12630;50.860;5.714;2022-12-18T11:18:33;-1.40;99.90
24460;DHT22;12630;50.860;5.714;2022-12-18T11:21:06;-1.50;99.90
24460;DHT22;12630;50.860;5.714;2022-12-18T11:23:35;-1.40;99.90
24460;DHT22;12630;50.860;5.714;2022-12-18T11:26:04;-1.10;99.90
24460;DHT22;12630;50.860;5.714;2022-12-18T11:28:38;-1.10;99.90
24460;DHT22;12630;50.860;5.714;2022-12-18T11:31:18;-1.00;99.90
24460;DHT22;12630;50.860;5.714;2022-12-18T11:33:46;-1.00;99.90
24460;DHT22;12630;50.860;5.714;2022-12-18T11:36:17;-1.00;99.90
24460;DHT22;12630;50.860;5.714;2022-12-18T11:38:44;-0.90;99.90
24460;DHT22;12630;50.860;5.714;2022-12-18T11:41:19;-0.80;99.90
24460;DHT22;12630;50.860;5.714;2022-12-18T11:43:53;-0.90;99.90
24460;DHT22;12630;50.860;5.714;2022-12-18T11:46:27;-0.90;99.90
24460;DHT22;12630;50.860;5.714;2022-12-18T11:49:01;-0.90;99.90
24460;DHT22;12630;50.860;5.714;2022-12-18T11:51:34;-1.00;99.90
24460;DHT22;12630;50.860;5.714;2022-12-18T11:54:11;-1.00;99.90
24460;DHT22;12630;50.860;5.714;2022-12-18T11:56:43;-1.00;99.90
24460;DHT22;12630;50.860;5.714;2022-12-18T11:59:20;-0.90;99.90
24460;DHT22;12630;50.860;5.714;2022-12-18T12:01:54;-0.90;99.90
24460;DHT22;12630;50.860;5.714;2022-12-18T12:04:37;-0.90;99.90
24460;DHT22;12630;50.860;5.714;2022-12-18T12:07:17;-0.80;99.90
24460;DHT22;12630;50.860;5.714;2022-12-18T12:09:53;-0.60;99.90
24460;DHT22;12630;50.860;5.714;2022-12-18T12:12:34;-0.50;99.90
24460;DHT22;12630;50.860;5.714;2022-12-18T12:15:20;-0.30;99.90
24460;DHT22;12630;50.860;5.714;2022-12-18T12:17:58;-0.30;99.90
24460;DHT22;12630;50.860;5.714;2022-12-18T12:20:42;-0.30;99.90
24460;DHT22;12630;50.860;5.714;2022-12-18T12:23:20;-0.20;99.90
24460;DHT22;12630;50.860;5.714;2022-12-18T12:25:52;-0.20;99.90
24460;DHT22;12630;50.860;5.714;2022-12-18T12:28:34;-0.10;99.90
24460;DHT22;12630;50.860;5.714;2022-12-18T12:31:12;-0.10;99.90
24460;DHT22;12630;50.860;5.714;2022-12-18T12:33:44;0.00;99.90
24460;DHT22;12630;50.860;5.714;2022-12-18T12:36:20;0.00;99.90
24460;DHT22;12630;50.860;5.714;2022-12-18T12:38:52;0.10;99.90
24460;DHT22;12630;50.860;5.714;2022-12-18T12:41:23;0.10;99.90
24460;DHT22;12630;50.860;5.714;2022-12-18T12:44:14;0.10;99.90
24460;DHT22;12630;50.860;5.714;2022-12-18T12:46:44;0.20;99.90
24460;DHT22;12630;50.860;5.714;2022-12-18T12:49:14;0.30;99.90
24460;DHT22;12630;50.860;5.714;2022-12-18T12:51:44;0.20;99.90
24460;DHT22;12630;50.860;5.714;2022-12-18T12:54:17;0.30;99.90
24460;DHT22;12630;50.860;5.714;2022-12-18T12:56:50;0.30;99.90
24460;DHT22;12630;50.860;5.714;2022-12-18T12:59:27;0.40;99.90
24460;DHT22;12630;50.860;5.714;2022-12-18T13:02:02;0.60;99.90
24460;DHT22;12630;50.860;5.714;2022-12-18T13:04:36;0.70;99.90
24460;DHT22;12630;50.860;5.714;2022-12-18T13:07:12;0.80;99.90
24460;DHT22;12630;50.860;5.714;2022-12-18T13:10:13;0.90;99.90
24460;DHT22;12630;50.860;5.714;2022-12-18T13:12:52;1.00;99.90
24460;DHT22;12630;50.860;5.714;2022-12-18T13:15:23;1.00;99.90
24460;DHT22;12630;50.860;5.714;2022-12-18T13:21:08;1.00;99.90
24460;DHT22;12630;50.860;5.714;2022-12-18T13:23:40;1.00;99.90
24460;DHT22;12630;50.860;5.714;2022-12-18T13:26:30;1.10;99.90
24460;DHT22;12630;50.860;5.714;2022-12-18T13:28:59;1.10;99.90
24460;DHT22;12630;50.860;5.714;2022-12-18T13:34:30;1.20;99.90
24460;DHT22;12630;50.860;5.714;2022-12-18T13:37:39;1.20;99.90
24460;DHT22;12630;50.860;5.714;2022-12-18T13:43:27;1.20;99.90
24460;DHT22;12630;50.860;5.714;2022-12-18T13:46:21;1.20;99.90
24460;DHT22;12630;50.860;5.714;2022-12-18T13:48:52;1.20;99.90
24460;DHT22;12630;50.860;5.714;2022-12-18T13:51:22;1.10;99.90
24460;DHT22;12630;50.860;5.714;2022-12-18T13:53:52;1.10;99.90
24460;DHT22;12630;50.860;5.714;2022-12-18T13:56:22;1.10;99.90
24460;DHT22;12630;50.860;5.714;2022-12-18T13:59:13;1.00;99.90
24460;DHT22;12630;50.860;5.714;2022-12-18T14:01:46;1.00;99.90
24460;DHT22;12630;50.860;5.714;2022-12-18T14:04:20;0.90;99.90
24460;DHT22;12630;50.860;5.714;2022-12-18T14:06:51;0.80;99.90
24460;DHT22;12630;50.860;5.714;2022-12-18T14:09:24;0.60;99.90
24460;DHT22;12630;50.860;5.714;2022-12-18T14:11:52;0.50;99.90
24460;DHT22;12630;50.860;5.714;2022-12-18T14:14:42;0.40;1.00
24460;DHT22;12630;50.860;5.714;2022-12-18T14:17:10;0.30;1.00
24460;DHT22;12630;50.860;5.714;2022-12-18T14:19:42;0.30;1.00
24460;DHT22;12630;50.860;5.714;2022-12-18T14:22:16;0.10;1.00
24460;DHT22;12630;50.860;5.714;2022-12-18T14:24:44;0.10;1.00
24460;DHT22;12630;50.860;5.714;2022-12-18T14:27:23;0.00;1.00
24460;DHT22;12630;50.860;5.714;2022-12-18T14:29:51;0.10;1.00
24460;DHT22;12630;50.860;5.714;2022-12-18T14:32:19;0.00;1.00
24460;DHT22;12630;50.860;5.714;2022-12-18T14:34:48;0.00;1.00
24460;DHT22;12630;50.860;5.714;2022-12-18T14:37:21;0.00;1.00
24460;DHT22;12630;50.860;5.714;2022-12-18T14:39:56;0.00;1.00
24460;DHT22;12630;50.860;5.714;2022-12-18T14:42:24;0.00;1.00
24460;DHT22;12630;50.860;5.714;2022-12-18T14:47:55;0.00;1.00
24460;DHT22;12630;50.860;5.714;2022-12-18T14:50:22;0.00;1.00
24460;DHT22;12630;50.860;5.714;2022-12-18T14:52:51;0.00;1.00
24460;DHT22;12630;50.860;5.714;2022-12-18T14:55:20;0.00;1.00
24460;DHT22;12630;50.860;5.714;2022-12-18T14:57:50;0.00;1.00
24460;DHT22;12630;50.860;5.714;2022-12-18T15:00:20;0.00;1.00
24460;DHT22;12630;50.860;5.714;2022-12-18T15:02:51;0.00;1.00
24460;DHT22;12630;50.860;5.714;2022-12-18T15:05:24;-0.10;1.00
24460;DHT22;12630;50.860;5.714;2022-12-18T15:07:54;-0.10;1.00
24460;DHT22;12630;50.860;5.714;2022-12-18T15:10:24;-0.20;1.00
